sensor_id;sensor_type;location;lat;lon;timestamp;P1;durP1;ratioP1;P2;durP2;ratioP2
37805;SDS011;25082;50.870;0.022;2024-02-16T00:00:27;3.88;;;1.80;;
37805;SDS011;25082;50.870;0.022;2024-02-16T00:02:53;3.40;;;1.80;;
37805;SDS011;25082;50.870;0.022;2024-02-16T00:05:19;3.30;;;1.55;;
37805;SDS011;25082;50.870;0.022;2024-02-16T00:07:45;2.67;;;1.77;;
37805;SDS011;25082;50.870;0.022;2024-02-16T00:10:12;1.98;;;1.63;;
37805;SDS011;25082;50.870;0.022;2024-02-16T00:12:38;2.05;;;1.63;;
37805;SDS011;25082;50.870;0.022;2024-02-16T00:15:05;3.53;;;1.77;;
37805;SDS011;25082;50.870;0.022;2024-02-16T00:17:31;2.65;;;1.70;;
37805;SDS011;25082;50.870;0.022;2024-02-16T00:19:58;3.80;;;2.20;;
37805;SDS011;25082;50.870;0.022;2024-02-16T00:22:24;3.80;;;2.10;;
37805;SDS011;25082;50.870;0.022;2024-02-16T00:24:51;4.95;;;1.95;;
37805;SDS011;25082;50.870;0.022;2024-02-16T00:27:16;2.95;;;1.60;;
37805;SDS011;25082;50.870;0.022;2024-02-16T00:29:43;3.75;;;1.73;;
37805;SDS011;25082;50.870;0.022;2024-02-16T00:32:11;2.13;;;1.55;;
37805;SDS011;25082;50.870;0.022;2024-02-16T00:34:37;3.05;;;1.70;;
37805;SDS011;25082;50.870;0.022;2024-02-16T00:37:06;5.25;;;2.28;;
37805;SDS011;25082;50.870;0.022;2024-02-16T00:39:37;2.97;;;1.77;;
37805;SDS011;25082;50.870;0.022;2024-02-16T00:42:06;2.45;;;1.80;;
37805;SDS011;25082;50.870;0.022;2024-02-16T00:44:33;2.88;;;1.80;;
37805;SDS011;25082;50.870;0.022;2024-02-16T00:46:58;2.65;;;1.90;;
37805;SDS011;25082;50.870;0.022;2024-02-16T00:49:24;4.13;;;1.80;;
37805;SDS011;25082;50.870;0.022;2024-02-16T00:51:50;4.88;;;1.98;;
37805;SDS011;25082;50.870;0.022;2024-02-16T00:54:16;3.45;;;1.95;;
37805;SDS011;25082;50.870;0.022;2024-02-16T00:56:43;3.45;;;1.95;;
37805;SDS011;25082;50.870;0.022;2024-02-16T00:59:09;4.43;;;2.10;;
37805;SDS011;25082;50.870;0.022;2024-02-16T01:01:35;3.47;;;1.98;;
37805;SDS011;25082;50.870;0.022;2024-02-16T01:04:01;2.72;;;1.70;;
37805;SDS011;25082;50.870;0.022;2024-02-16T01:06:27;3.67;;;2.13;;
37805;SDS011;25082;50.870;0.022;2024-02-16T01:08:53;4.57;;;2.47;;
37805;SDS011;25082;50.870;0.022;2024-02-16T01:11:19;2.50;;;1.92;;
37805;SDS011;25082;50.870;0.022;2024-02-16T01:13:45;3.65;;;1.90;;
37805;SDS011;25082;50.870;0.022;2024-02-16T01:16:12;2.60;;;1.52;;
37805;SDS011;25082;50.870;0.022;2024-02-16T01:18:37;4.40;;;2.00;;
37805;SDS011;25082;50.870;0.022;2024-02-16T01:21:04;4.35;;;2.10;;
37805;SDS011;25082;50.870;0.022;2024-02-16T01:23:30;2.83;;;1.90;;
37805;SDS011;25082;50.870;0.022;2024-02-16T01:25:56;3.53;;;2.08;;
37805;SDS011;25082;50.870;0.022;2024-02-16T01:28:21;3.70;;;2.17;;
37805;SDS011;25082;50.870;0.022;2024-02-16T01:30:48;3.17;;;2.00;;
37805;SDS011;25082;50.870;0.022;2024-02-16T01:33:14;4.85;;;2.00;;
37805;SDS011;25082;50.870;0.022;2024-02-16T01:35:40;3.75;;;1.98;;
37805;SDS011;25082;50.870;0.022;2024-02-16T01:38:06;3.72;;;2.13;;
37805;SDS011;25082;50.870;0.022;2024-02-16T01:40:32;3.63;;;2.10;;
37805;SDS011;25082;50.870;0.022;2024-02-16T01:42:58;2.45;;;2.05;;
37805;SDS011;25082;50.870;0.022;2024-02-16T01:45:23;3.72;;;1.80;;
37805;SDS011;25082;50.870;0.022;2024-02-16T01:47:50;5.03;;;2.33;;
37805;SDS011;25082;50.870;0.022;2024-02-16T01:50:17;3.53;;;2.33;;
37805;SDS011;25082;50.870;0.022;2024-02-16T01:52:44;5.15;;;2.53;;
37805;SDS011;25082;50.870;0.022;2024-02-16T01:55:11;3.08;;;2.05;;
37805;SDS011;25082;50.870;0.022;2024-02-16T01:57:42;6.40;;;2.30;;
37805;SDS011;25082;50.870;0.022;2024-02-16T02:00:09;3.67;;;2.17;;
37805;SDS011;25082;50.870;0.022;2024-02-16T02:02:35;4.03;;;2.00;;
37805;SDS011;25082;50.870;0.022;2024-02-16T02:05:02;2.78;;;1.90;;
37805;SDS011;25082;50.870;0.022;2024-02-16T02:07:29;6.13;;;2.40;;
37805;SDS011;25082;50.870;0.022;2024-02-16T02:09:55;3.08;;;2.28;;
37805;SDS011;25082;50.870;0.022;2024-02-16T02:12:21;4.57;;;2.20;;
37805;SDS011;25082;50.870;0.022;2024-02-16T02:14:48;2.90;;;2.13;;
37805;SDS011;25082;50.870;0.022;2024-02-16T02:17:14;5.47;;;2.55;;
37805;SDS011;25082;50.870;0.022;2024-02-16T02:19:41;2.90;;;1.90;;
37805;SDS011;25082;50.870;0.022;2024-02-16T02:22:17;3.65;;;2.28;;
37805;SDS011;25082;50.870;0.022;2024-02-16T02:24:46;3.28;;;2.30;;
37805;SDS011;25082;50.870;0.022;2024-02-16T02:27:14;3.22;;;2.40;;
37805;SDS011;25082;50.870;0.022;2024-02-16T02:29:40;4.22;;;2.10;;
37805;SDS011;25082;50.870;0.022;2024-02-16T02:32:07;2.97;;;2.20;;
37805;SDS011;25082;50.870;0.022;2024-02-16T02:34:33;3.40;;;2.20;;
37805;SDS011;25082;50.870;0.022;2024-02-16T02:37:01;3.70;;;1.98;;
37805;SDS011;25082;50.870;0.022;2024-02-16T02:39:29;3.80;;;2.28;;
37805;SDS011;25082;50.870;0.022;2024-02-16T02:41:55;4.22;;;2.35;;
37805;SDS011;25082;50.870;0.022;2024-02-16T02:44:20;4.07;;;2.60;;
37805;SDS011;25082;50.870;0.022;2024-02-16T02:46:46;4.72;;;2.25;;
37805;SDS011;25082;50.870;0.022;2024-02-16T02:49:12;2.95;;;2.10;;
37805;SDS011;25082;50.870;0.022;2024-02-16T02:51:38;3.15;;;2.00;;
37805;SDS011;25082;50.870;0.022;2024-02-16T02:54:04;3.60;;;2.15;;
37805;SDS011;25082;50.870;0.022;2024-02-16T02:56:29;3.63;;;2.15;;
37805;SDS011;25082;50.870;0.022;2024-02-16T02:58:55;4.22;;;2.58;;
37805;SDS011;25082;50.870;0.022;2024-02-16T03:01:21;3.42;;;1.98;;
37805;SDS011;25082;50.870;0.022;2024-02-16T03:03:47;4.80;;;2.55;;
37805;SDS011;25082;50.870;0.022;2024-02-16T03:06:17;3.88;;;2.20;;
37805;SDS011;25082;50.870;0.022;2024-02-16T03:08:43;4.28;;;2.63;;
37805;SDS011;25082;50.870;0.022;2024-02-16T03:11:09;4.40;;;2.38;;
37805;SDS011;25082;50.870;0.022;2024-02-16T03:13:35;6.10;;;2.75;;
37805;SDS011;25082;50.870;0.022;2024-02-16T03:16:01;5.55;;;2.55;;
37805;SDS011;25082;50.870;0.022;2024-02-16T03:18:31;3.28;;;2.00;;
37805;SDS011;25082;50.870;0.022;2024-02-16T03:20:58;3.17;;;2.20;;
37805;SDS011;25082;50.870;0.022;2024-02-16T03:23:24;2.90;;;2.28;;
37805;SDS011;25082;50.870;0.022;2024-02-16T03:25:50;3.78;;;2.30;;
37805;SDS011;25082;50.870;0.022;2024-02-16T03:28:15;3.33;;;2.40;;
37805;SDS011;25082;50.870;0.022;2024-02-16T03:30:41;4.75;;;2.40;;
37805;SDS011;25082;50.870;0.022;2024-02-16T03:33:08;4.28;;;2.60;;
37805;SDS011;25082;50.870;0.022;2024-02-16T03:35:35;3.80;;;2.40;;
37805;SDS011;25082;50.870;0.022;2024-02-16T03:38:04;4.00;;;2.15;;
37805;SDS011;25082;50.870;0.022;2024-02-16T03:40:30;4.25;;;2.47;;
37805;SDS011;25082;50.870;0.022;2024-02-16T03:42:56;3.50;;;2.08;;
37805;SDS011;25082;50.870;0.022;2024-02-16T03:45:23;4.55;;;2.75;;
37805;SDS011;25082;50.870;0.022;2024-02-16T03:47:49;4.38;;;2.15;;
37805;SDS011;25082;50.870;0.022;2024-02-16T03:50:17;5.05;;;2.83;;
37805;SDS011;25082;50.870;0.022;2024-02-16T03:52:47;5.15;;;2.35;;
37805;SDS011;25082;50.870;0.022;2024-02-16T03:55:13;3.28;;;2.45;;
37805;SDS011;25082;50.870;0.022;2024-02-16T03:57:39;4.70;;;3.08;;
37805;SDS011;25082;50.870;0.022;2024-02-16T04:00:06;5.22;;;2.70;;
37805;SDS011;25082;50.870;0.022;2024-02-16T04:02:33;4.93;;;2.67;;
37805;SDS011;25082;50.870;0.022;2024-02-16T04:04:59;3.58;;;2.58;;
37805;SDS011;25082;50.870;0.022;2024-02-16T04:07:25;2.90;;;2.22;;
37805;SDS011;25082;50.870;0.022;2024-02-16T04:09:50;4.35;;;2.90;;
37805;SDS011;25082;50.870;0.022;2024-02-16T04:12:16;3.60;;;2.53;;
37805;SDS011;25082;50.870;0.022;2024-02-16T04:14:42;3.78;;;2.35;;
37805;SDS011;25082;50.870;0.022;2024-02-16T04:17:08;4.10;;;2.58;;
37805;SDS011;25082;50.870;0.022;2024-02-16T04:19:36;3.40;;;2.53;;
37805;SDS011;25082;50.870;0.022;2024-02-16T04:22:02;3.47;;;2.33;;
37805;SDS011;25082;50.870;0.022;2024-02-16T04:24:28;4.10;;;3.08;;
37805;SDS011;25082;50.870;0.022;2024-02-16T04:26:54;3.55;;;2.25;;
37805;SDS011;25082;50.870;0.022;2024-02-16T04:29:20;5.38;;;2.80;;
37805;SDS011;25082;50.870;0.022;2024-02-16T04:31:46;3.72;;;2.35;;
37805;SDS011;25082;50.870;0.022;2024-02-16T04:34:13;4.03;;;2.53;;
37805;SDS011;25082;50.870;0.022;2024-02-16T04:36:39;4.13;;;2.13;;
37805;SDS011;25082;50.870;0.022;2024-02-16T04:39:06;4.07;;;2.40;;
37805;SDS011;25082;50.870;0.022;2024-02-16T04:41:31;4.43;;;2.58;;
37805;SDS011;25082;50.870;0.022;2024-02-16T04:43:57;3.65;;;2.50;;
37805;SDS011;25082;50.870;0.022;2024-02-16T04:46:23;4.45;;;2.38;;
37805;SDS011;25082;50.870;0.022;2024-02-16T04:48:49;4.50;;;2.45;;
37805;SDS011;25082;50.870;0.022;2024-02-16T04:51:14;5.10;;;2.50;;
37805;SDS011;25082;50.870;0.022;2024-02-16T04:53:40;4.03;;;2.58;;
37805;SDS011;25082;50.870;0.022;2024-02-16T04:56:06;2.75;;;2.13;;
37805;SDS011;25082;50.870;0.022;2024-02-16T04:58:32;2.90;;;2.22;;
37805;SDS011;25082;50.870;0.022;2024-02-16T05:00:57;3.95;;;2.50;;
37805;SDS011;25082;50.870;0.022;2024-02-16T05:03:23;3.80;;;2.20;;
37805;SDS011;25082;50.870;0.022;2024-02-16T05:05:50;4.07;;;2.13;;
37805;SDS011;25082;50.870;0.022;2024-02-16T05:08:17;3.13;;;1.98;;
37805;SDS011;25082;50.870;0.022;2024-02-16T05:10:44;2.40;;;1.60;;
37805;SDS011;25082;50.870;0.022;2024-02-16T05:13:09;4.50;;;2.33;;
37805;SDS011;25082;50.870;0.022;2024-02-16T05:15:37;3.45;;;2.08;;
37805;SDS011;25082;50.870;0.022;2024-02-16T05:18:02;1.92;;;1.60;;
37805;SDS011;25082;50.870;0.022;2024-02-16T05:20:28;3.83;;;2.30;;
37805;SDS011;25082;50.870;0.022;2024-02-16T05:22:54;3.05;;;1.98;;
37805;SDS011;25082;50.870;0.022;2024-02-16T05:25:20;4.35;;;2.42;;
37805;SDS011;25082;50.870;0.022;2024-02-16T05:27:45;2.05;;;1.80;;
37805;SDS011;25082;50.870;0.022;2024-02-16T05:30:14;4.22;;;1.67;;
37805;SDS011;25082;50.870;0.022;2024-02-16T05:32:41;2.72;;;1.73;;
37805;SDS011;25082;50.870;0.022;2024-02-16T05:35:07;3.58;;;1.63;;
37805;SDS011;25082;50.870;0.022;2024-02-16T05:37:41;3.42;;;2.00;;
37805;SDS011;25082;50.870;0.022;2024-02-16T05:40:14;3.30;;;2.08;;
37805;SDS011;25082;50.870;0.022;2024-02-16T05:42:50;2.92;;;1.70;;
37805;SDS011;25082;50.870;0.022;2024-02-16T05:45:17;1.73;;;1.60;;
37805;SDS011;25082;50.870;0.022;2024-02-16T05:47:43;2.38;;;1.88;;
37805;SDS011;25082;50.870;0.022;2024-02-16T05:50:13;2.45;;;1.75;;
37805;SDS011;25082;50.870;0.022;2024-02-16T05:52:43;2.80;;;1.60;;
37805;SDS011;25082;50.870;0.022;2024-02-16T05:55:10;3.30;;;1.75;;
37805;SDS011;25082;50.870;0.022;2024-02-16T05:57:36;1.38;;;1.20;;
37805;SDS011;25082;50.870;0.022;2024-02-16T06:00:03;1.88;;;1.30;;
37805;SDS011;25082;50.870;0.022;2024-02-16T06:02:33;3.25;;;2.15;;
37805;SDS011;25082;50.870;0.022;2024-02-16T06:05:00;4.82;;;1.58;;
37805;SDS011;25082;50.870;0.022;2024-02-16T06:07:29;2.17;;;1.20;;
37805;SDS011;25082;50.870;0.022;2024-02-16T06:09:55;3.03;;;1.40;;
37805;SDS011;25082;50.870;0.022;2024-02-16T06:12:22;3.50;;;1.52;;
37805;SDS011;25082;50.870;0.022;2024-02-16T06:14:48;1.98;;;1.27;;
37805;SDS011;25082;50.870;0.022;2024-02-16T06:17:15;2.08;;;1.40;;
37805;SDS011;25082;50.870;0.022;2024-02-16T06:19:42;5.10;;;1.60;;
37805;SDS011;25082;50.870;0.022;2024-02-16T06:22:08;1.75;;;1.10;;
37805;SDS011;25082;50.870;0.022;2024-02-16T06:24:35;1.90;;;1.20;;
37805;SDS011;25082;50.870;0.022;2024-02-16T06:27:01;1.27;;;1.08;;
37805;SDS011;25082;50.870;0.022;2024-02-16T06:29:28;1.52;;;1.23;;
37805;SDS011;25082;50.870;0.022;2024-02-16T06:31:55;2.45;;;1.00;;
37805;SDS011;25082;50.870;0.022;2024-02-16T06:34:21;1.13;;;1.00;;
37805;SDS011;25082;50.870;0.022;2024-02-16T06:36:47;2.55;;;1.00;;
37805;SDS011;25082;50.870;0.022;2024-02-16T06:39:13;1.35;;;0.80;;
37805;SDS011;25082;50.870;0.022;2024-02-16T06:41:43;1.00;;;0.70;;
37805;SDS011;25082;50.870;0.022;2024-02-16T06:44:10;1.77;;;0.93;;
37805;SDS011;25082;50.870;0.022;2024-02-16T06:46:40;1.25;;;0.82;;
37805;SDS011;25082;50.870;0.022;2024-02-16T06:49:06;0.93;;;0.80;;
37805;SDS011;25082;50.870;0.022;2024-02-16T06:51:32;1.73;;;1.02;;
37805;SDS011;25082;50.870;0.022;2024-02-16T06:53:58;0.95;;;0.80;;
37805;SDS011;25082;50.870;0.022;2024-02-16T06:56:24;2.00;;;0.70;;
37805;SDS011;25082;50.870;0.022;2024-02-16T06:58:50;1.33;;;0.95;;
37805;SDS011;25082;50.870;0.022;2024-02-16T07:01:16;1.73;;;1.13;;
37805;SDS011;25082;50.870;0.022;2024-02-16T07:03:45;1.42;;;0.75;;
37805;SDS011;25082;50.870;0.022;2024-02-16T07:06:11;2.42;;;0.75;;
37805;SDS011;25082;50.870;0.022;2024-02-16T07:08:39;2.25;;;1.10;;
37805;SDS011;25082;50.870;0.022;2024-02-16T07:11:05;1.45;;;0.93;;
37805;SDS011;25082;50.870;0.022;2024-02-16T07:13:33;3.45;;;1.10;;
37805;SDS011;25082;50.870;0.022;2024-02-16T07:15:59;1.98;;;0.70;;
37805;SDS011;25082;50.870;0.022;2024-02-16T07:18:25;1.38;;;0.82;;
37805;SDS011;25082;50.870;0.022;2024-02-16T07:20:51;1.17;;;0.75;;
37805;SDS011;25082;50.870;0.022;2024-02-16T07:23:17;0.68;;;0.57;;
37805;SDS011;25082;50.870;0.022;2024-02-16T07:25:42;1.13;;;0.60;;
37805;SDS011;25082;50.870;0.022;2024-02-16T07:28:11;1.02;;;0.70;;
37805;SDS011;25082;50.870;0.022;2024-02-16T07:30:36;1.65;;;0.55;;
37805;SDS011;25082;50.870;0.022;2024-02-16T07:33:05;1.98;;;0.70;;
37805;SDS011;25082;50.870;0.022;2024-02-16T07:35:34;0.85;;;0.65;;
37805;SDS011;25082;50.870;0.022;2024-02-16T07:38:03;0.68;;;0.40;;
37805;SDS011;25082;50.870;0.022;2024-02-16T07:40:29;0.88;;;0.50;;
37805;SDS011;25082;50.870;0.022;2024-02-16T07:42:58;1.15;;;0.65;;
37805;SDS011;25082;50.870;0.022;2024-02-16T07:45:24;1.20;;;0.70;;
37805;SDS011;25082;50.870;0.022;2024-02-16T07:47:51;0.98;;;0.50;;
37805;SDS011;25082;50.870;0.022;2024-02-16T07:50:18;0.90;;;0.50;;
37805;SDS011;25082;50.870;0.022;2024-02-16T07:52:45;0.60;;;0.55;;
37805;SDS011;25082;50.870;0.022;2024-02-16T07:55:12;1.83;;;0.90;;
37805;SDS011;25082;50.870;0.022;2024-02-16T07:57:38;2.13;;;0.68;;
37805;SDS011;25082;50.870;0.022;2024-02-16T08:00:04;2.45;;;1.00;;
37805;SDS011;25082;50.870;0.022;2024-02-16T08:02:35;2.33;;;0.60;;
37805;SDS011;25082;50.870;0.022;2024-02-16T08:05:02;1.13;;;0.65;;
37805;SDS011;25082;50.870;0.022;2024-02-16T08:07:28;0.68;;;0.52;;
37805;SDS011;25082;50.870;0.022;2024-02-16T08:09:53;1.10;;;0.90;;
37805;SDS011;25082;50.870;0.022;2024-02-16T08:12:19;2.13;;;0.60;;
37805;SDS011;25082;50.870;0.022;2024-02-16T08:14:46;0.68;;;0.60;;
37805;SDS011;25082;50.870;0.022;2024-02-16T08:17:12;1.15;;;0.60;;
37805;SDS011;25082;50.870;0.022;2024-02-16T08:19:37;0.85;;;0.55;;
37805;SDS011;25082;50.870;0.022;2024-02-16T08:22:05;1.65;;;1.02;;
37805;SDS011;25082;50.870;0.022;2024-02-16T08:24:33;1.38;;;0.75;;
37805;SDS011;25082;50.870;0.022;2024-02-16T08:26:59;0.95;;;0.60;;
37805;SDS011;25082;50.870;0.022;2024-02-16T08:29:25;2.47;;;1.02;;
37805;SDS011;25082;50.870;0.022;2024-02-16T08:31:51;2.13;;;0.77;;
37805;SDS011;25082;50.870;0.022;2024-02-16T08:34:17;1.70;;;0.68;;
37805;SDS011;25082;50.870;0.022;2024-02-16T08:36:47;1.52;;;0.70;;
37805;SDS011;25082;50.870;0.022;2024-02-16T08:39:15;2.05;;;0.85;;
37805;SDS011;25082;50.870;0.022;2024-02-16T08:41:41;1.13;;;0.77;;
37805;SDS011;25082;50.870;0.022;2024-02-16T08:44:09;1.55;;;0.82;;
37805;SDS011;25082;50.870;0.022;2024-02-16T08:46:38;1.02;;;0.65;;
37805;SDS011;25082;50.870;0.022;2024-02-16T08:49:04;0.98;;;0.80;;
37805;SDS011;25082;50.870;0.022;2024-02-16T08:51:34;1.83;;;0.90;;
37805;SDS011;25082;50.870;0.022;2024-02-16T08:54:00;2.35;;;0.77;;
37805;SDS011;25082;50.870;0.022;2024-02-16T08:56:29;0.75;;;0.60;;
37805;SDS011;25082;50.870;0.022;2024-02-16T08:58:56;1.48;;;0.88;;
37805;SDS011;25082;50.870;0.022;2024-02-16T09:03:57;1.63;;;0.73;;
37805;SDS011;25082;50.870;0.022;2024-02-16T09:06:22;1.58;;;0.82;;
37805;SDS011;25082;50.870;0.022;2024-02-16T09:08:48;1.23;;;0.90;;
37805;SDS011;25082;50.870;0.022;2024-02-16T09:11:14;1.65;;;0.70;;
37805;SDS011;25082;50.870;0.022;2024-02-16T09:13:40;2.22;;;0.70;;
37805;SDS011;25082;50.870;0.022;2024-02-16T09:16:06;2.90;;;0.90;;
37805;SDS011;25082;50.870;0.022;2024-02-16T09:18:32;1.85;;;0.73;;
37805;SDS011;25082;50.870;0.022;2024-02-16T09:20:58;1.27;;;0.93;;
37805;SDS011;25082;50.870;0.022;2024-02-16T09:23:24;1.85;;;0.60;;
37805;SDS011;25082;50.870;0.022;2024-02-16T09:25:50;2.63;;;0.90;;
37805;SDS011;25082;50.870;0.022;2024-02-16T09:28:16;2.60;;;0.88;;
37805;SDS011;25082;50.870;0.022;2024-02-16T09:30:45;2.85;;;1.02;;
37805;SDS011;25082;50.870;0.022;2024-02-16T09:33:11;3.70;;;1.17;;
37805;SDS011;25082;50.870;0.022;2024-02-16T09:35:38;4.85;;;0.80;;
37805;SDS011;25082;50.870;0.022;2024-02-16T09:38:05;3.78;;;0.90;;
37805;SDS011;25082;50.870;0.022;2024-02-16T09:40:31;5.00;;;0.98;;
37805;SDS011;25082;50.870;0.022;2024-02-16T09:42:56;5.85;;;1.60;;
37805;SDS011;25082;50.870;0.022;2024-02-16T09:45:23;5.53;;;1.27;;
37805;SDS011;25082;50.870;0.022;2024-02-16T09:47:51;4.40;;;1.58;;
37805;SDS011;25082;50.870;0.022;2024-02-16T09:50:20;6.18;;;1.30;;
37805;SDS011;25082;50.870;0.022;2024-02-16T09:52:46;12.60;;;2.13;;
37805;SDS011;25082;50.870;0.022;2024-02-16T09:55:14;4.80;;;1.20;;
37805;SDS011;25082;50.870;0.022;2024-02-16T09:57:40;4.25;;;1.00;;
37805;SDS011;25082;50.870;0.022;2024-02-16T10:00:06;4.40;;;1.10;;
37805;SDS011;25082;50.870;0.022;2024-02-16T10:02:44;4.65;;;1.45;;
37805;SDS011;25082;50.870;0.022;2024-02-16T10:07:45;4.33;;;1.57;;
37805;SDS011;25082;50.870;0.022;2024-02-16T10:10:27;8.20;;;1.33;;
37805;SDS011;25082;50.870;0.022;2024-02-16T10:13:06;5.63;;;1.63;;
37805;SDS011;25082;50.870;0.022;2024-02-16T10:15:33;7.78;;;1.80;;
37805;SDS011;25082;50.870;0.022;2024-02-16T10:18:03;4.95;;;1.50;;
37805;SDS011;25082;50.870;0.022;2024-02-16T10:20:31;7.15;;;1.58;;
37805;SDS011;25082;50.870;0.022;2024-02-16T10:23:07;3.30;;;1.42;;
37805;SDS011;25082;50.870;0.022;2024-02-16T10:25:35;7.75;;;1.33;;
37805;SDS011;25082;50.870;0.022;2024-02-16T10:28:05;5.40;;;1.52;;
37805;SDS011;25082;50.870;0.022;2024-02-16T10:30:37;3.05;;;0.90;;
37805;SDS011;25082;50.870;0.022;2024-02-16T10:33:04;3.47;;;1.20;;
37805;SDS011;25082;50.870;0.022;2024-02-16T10:35:36;3.78;;;1.10;;
37805;SDS011;25082;50.870;0.022;2024-02-16T10:38:03;5.28;;;1.85;;
37805;SDS011;25082;50.870;0.022;2024-02-16T10:40:40;3.10;;;0.85;;
37805;SDS011;25082;50.870;0.022;2024-02-16T10:43:06;5.57;;;1.58;;
37805;SDS011;25082;50.870;0.022;2024-02-16T10:45:36;4.55;;;1.30;;
37805;SDS011;25082;50.870;0.022;2024-02-16T10:48:03;7.88;;;1.52;;
37805;SDS011;25082;50.870;0.022;2024-02-16T10:50:34;5.22;;;1.20;;
37805;SDS011;25082;50.870;0.022;2024-02-16T10:55:59;13.90;;;2.13;;
37805;SDS011;25082;50.870;0.022;2024-02-16T10:58:27;21.92;;;2.88;;
37805;SDS011;25082;50.870;0.022;2024-02-16T11:00:53;11.00;;;2.03;;
37805;SDS011;25082;50.870;0.022;2024-02-16T11:03:24;6.00;;;1.58;;
37805;SDS011;25082;50.870;0.022;2024-02-16T11:05:50;8.32;;;2.28;;
37805;SDS011;25082;50.870;0.022;2024-02-16T11:08:17;7.95;;;2.15;;
37805;SDS011;25082;50.870;0.022;2024-02-16T11:11:02;9.00;;;2.05;;
37805;SDS011;25082;50.870;0.022;2024-02-16T11:13:32;5.00;;;1.35;;
37805;SDS011;25082;50.870;0.022;2024-02-16T11:16:03;6.47;;;1.73;;
37805;SDS011;25082;50.870;0.022;2024-02-16T11:18:36;7.43;;;1.35;;
37805;SDS011;25082;50.870;0.022;2024-02-16T11:21:03;4.95;;;1.70;;
37805;SDS011;25082;50.870;0.022;2024-02-16T11:23:31;6.25;;;1.45;;
37805;SDS011;25082;50.870;0.022;2024-02-16T11:26:04;9.48;;;1.42;;
37805;SDS011;25082;50.870;0.022;2024-02-16T11:28:34;13.30;;;1.55;;
37805;SDS011;25082;50.870;0.022;2024-02-16T11:31:00;7.00;;;1.73;;
37805;SDS011;25082;50.870;0.022;2024-02-16T11:33:28;7.05;;;2.10;;
37805;SDS011;25082;50.870;0.022;2024-02-16T11:35:55;7.70;;;1.60;;
37805;SDS011;25082;50.870;0.022;2024-02-16T11:38:22;4.43;;;1.58;;
37805;SDS011;25082;50.870;0.022;2024-02-16T11:40:58;4.50;;;1.00;;
37805;SDS011;25082;50.870;0.022;2024-02-16T11:43:29;7.40;;;1.60;;
37805;SDS011;25082;50.870;0.022;2024-02-16T11:45:56;6.05;;;1.25;;
37805;SDS011;25082;50.870;0.022;2024-02-16T11:48:23;7.22;;;2.00;;
37805;SDS011;25082;50.870;0.022;2024-02-16T11:50:55;7.05;;;1.17;;
37805;SDS011;25082;50.870;0.022;2024-02-16T11:53:28;6.85;;;1.80;;
37805;SDS011;25082;50.870;0.022;2024-02-16T11:55:54;6.07;;;1.75;;
37805;SDS011;25082;50.870;0.022;2024-02-16T11:58:20;3.30;;;1.10;;
37805;SDS011;25082;50.870;0.022;2024-02-16T12:00:48;3.55;;;1.15;;
37805;SDS011;25082;50.870;0.022;2024-02-16T12:03:21;4.25;;;1.55;;
37805;SDS011;25082;50.870;0.022;2024-02-16T12:05:57;4.47;;;1.60;;
37805;SDS011;25082;50.870;0.022;2024-02-16T12:08:24;7.00;;;1.40;;
37805;SDS011;25082;50.870;0.022;2024-02-16T12:11:00;5.32;;;2.03;;
37805;SDS011;25082;50.870;0.022;2024-02-16T12:13:27;4.20;;;1.48;;
37805;SDS011;25082;50.870;0.022;2024-02-16T12:15:53;3.95;;;0.90;;
37805;SDS011;25082;50.870;0.022;2024-02-16T12:18:24;4.38;;;0.90;;
37805;SDS011;25082;50.870;0.022;2024-02-16T12:20:58;3.70;;;1.00;;
37805;SDS011;25082;50.870;0.022;2024-02-16T12:23:27;7.68;;;1.20;;
37805;SDS011;25082;50.870;0.022;2024-02-16T12:25:54;4.72;;;1.35;;
37805;SDS011;25082;50.870;0.022;2024-02-16T12:28:23;4.28;;;1.30;;
37805;SDS011;25082;50.870;0.022;2024-02-16T12:30:50;8.38;;;1.30;;
37805;SDS011;25082;50.870;0.022;2024-02-16T12:33:16;7.15;;;1.30;;
37805;SDS011;25082;50.870;0.022;2024-02-16T12:35:42;4.95;;;1.15;;
37805;SDS011;25082;50.870;0.022;2024-02-16T12:38:09;5.05;;;0.88;;
37805;SDS011;25082;50.870;0.022;2024-02-16T12:40:36;6.82;;;1.02;;
37805;SDS011;25082;50.870;0.022;2024-02-16T12:43:02;5.35;;;1.23;;
37805;SDS011;25082;50.870;0.022;2024-02-16T12:45:27;4.28;;;1.10;;
37805;SDS011;25082;50.870;0.022;2024-02-16T12:47:53;2.65;;;1.17;;
37805;SDS011;25082;50.870;0.022;2024-02-16T12:50:20;1.42;;;0.82;;
37805;SDS011;25082;50.870;0.022;2024-02-16T12:52:45;4.13;;;0.80;;
37805;SDS011;25082;50.870;0.022;2024-02-16T12:55:11;4.28;;;0.77;;
37805;SDS011;25082;50.870;0.022;2024-02-16T12:57:37;2.88;;;0.60;;
37805;SDS011;25082;50.870;0.022;2024-02-16T13:00:04;2.17;;;0.70;;
37805;SDS011;25082;50.870;0.022;2024-02-16T13:02:30;4.10;;;1.05;;
37805;SDS011;25082;50.870;0.022;2024-02-16T13:04:56;1.92;;;0.70;;
37805;SDS011;25082;50.870;0.022;2024-02-16T13:07:23;3.17;;;1.08;;
37805;SDS011;25082;50.870;0.022;2024-02-16T13:09:50;2.60;;;0.63;;
37805;SDS011;25082;50.870;0.022;2024-02-16T13:12:16;2.20;;;0.90;;
37805;SDS011;25082;50.870;0.022;2024-02-16T13:14:44;5.53;;;1.95;;
37805;SDS011;25082;50.870;0.022;2024-02-16T13:17:10;53.40;;;22.23;;
37805;SDS011;25082;50.870;0.022;2024-02-16T13:19:37;72.95;;;33.63;;
37805;SDS011;25082;50.870;0.022;2024-02-16T13:22:03;83.43;;;32.47;;
37805;SDS011;25082;50.870;0.022;2024-02-16T13:24:29;83.97;;;36.05;;
37805;SDS011;25082;50.870;0.022;2024-02-16T13:26:55;72.65;;;31.25;;
37805;SDS011;25082;50.870;0.022;2024-02-16T13:29:21;77.65;;;32.40;;
37805;SDS011;25082;50.870;0.022;2024-02-16T13:31:47;75.60;;;33.08;;
37805;SDS011;25082;50.870;0.022;2024-02-16T13:34:12;82.88;;;33.28;;
37805;SDS011;25082;50.870;0.022;2024-02-16T13:36:40;71.03;;;30.73;;
37805;SDS011;25082;50.870;0.022;2024-02-16T13:39:06;67.78;;;30.40;;
37805;SDS011;25082;50.870;0.022;2024-02-16T13:41:33;57.92;;;25.30;;
37805;SDS011;25082;50.870;0.022;2024-02-16T13:43:59;58.60;;;24.83;;
37805;SDS011;25082;50.870;0.022;2024-02-16T13:46:25;45.25;;;22.23;;
37805;SDS011;25082;50.870;0.022;2024-02-16T13:48:51;46.85;;;20.20;;
37805;SDS011;25082;50.870;0.022;2024-02-16T13:51:16;40.30;;;19.23;;
37805;SDS011;25082;50.870;0.022;2024-02-16T13:53:44;39.03;;;17.05;;
37805;SDS011;25082;50.870;0.022;2024-02-16T13:56:10;37.50;;;14.70;;
37805;SDS011;25082;50.870;0.022;2024-02-16T13:58:35;39.03;;;14.90;;
37805;SDS011;25082;50.870;0.022;2024-02-16T14:01:03;34.83;;;14.38;;
37805;SDS011;25082;50.870;0.022;2024-02-16T14:03:29;33.60;;;14.50;;
37805;SDS011;25082;50.870;0.022;2024-02-16T14:05:56;32.28;;;13.13;;
37805;SDS011;25082;50.870;0.022;2024-02-16T14:08:22;34.03;;;13.18;;
37805;SDS011;25082;50.870;0.022;2024-02-16T14:10:48;29.50;;;12.27;;
37805;SDS011;25082;50.870;0.022;2024-02-16T14:13:13;24.63;;;11.27;;
37805;SDS011;25082;50.870;0.022;2024-02-16T14:15:41;30.48;;;13.05;;
37805;SDS011;25082;50.870;0.022;2024-02-16T14:18:07;34.63;;;13.13;;
37805;SDS011;25082;50.870;0.022;2024-02-16T14:20:34;33.67;;;10.95;;
37805;SDS011;25082;50.870;0.022;2024-02-16T14:23:00;29.05;;;11.95;;
37805;SDS011;25082;50.870;0.022;2024-02-16T14:25:27;24.05;;;11.18;;
37805;SDS011;25082;50.870;0.022;2024-02-16T14:27:54;24.77;;;10.60;;
37805;SDS011;25082;50.870;0.022;2024-02-16T14:30:20;26.67;;;10.57;;
37805;SDS011;25082;50.870;0.022;2024-02-16T14:32:46;24.20;;;10.68;;
37805;SDS011;25082;50.870;0.022;2024-02-16T14:35:12;25.33;;;9.48;;
37805;SDS011;25082;50.870;0.022;2024-02-16T14:37:37;20.02;;;8.57;;
37805;SDS011;25082;50.870;0.022;2024-02-16T14:40:04;26.05;;;9.43;;
37805;SDS011;25082;50.870;0.022;2024-02-16T14:42:35;22.03;;;8.67;;
37805;SDS011;25082;50.870;0.022;2024-02-16T14:45:03;19.70;;;7.85;;
37805;SDS011;25082;50.870;0.022;2024-02-16T14:47:30;24.10;;;8.75;;
37805;SDS011;25082;50.870;0.022;2024-02-16T14:49:56;22.65;;;8.45;;
37805;SDS011;25082;50.870;0.022;2024-02-16T14:52:22;17.55;;;7.75;;